createdAt,value
2022-10-20T00:01:16.142Z,4.30
2022-10-20T00:03:43.471Z,4.47
2022-10-20T00:06:13.349Z,4.70
2022-10-20T00:08:41.576Z,5.20
2022-10-20T00:11:09.865Z,4.70
2022-10-20T00:13:36.950Z,4.40
2022-10-20T00:16:04.275Z,4.53
2022-10-20T00:18:31.124Z,4.40
2022-10-20T00:20:57.899Z,4.75
2022-10-20T00:23:24.744Z,4.57
2022-10-20T00:26:10.632Z,4.70
2022-10-20T00:28:37.679Z,3.97
2022-10-20T00:31:05.068Z,4.45
2022-10-20T00:33:32.775Z,4.55
2022-10-20T00:36:00.668Z,4.85
2022-10-20T00:38:27.457Z,4.97
2022-10-20T00:40:54.205Z,5.35
2022-10-20T00:43:21.394Z,4.47
2022-10-20T00:45:55.884Z,4.55
2022-10-20T00:48:28.053Z,5.07
2022-10-20T00:50:56.599Z,4.80
2022-10-20T00:53:26.663Z,4.55
2022-10-20T00:55:55.589Z,4.93
2022-10-20T00:58:22.582Z,5.30
2022-10-20T01:00:52.099Z,4.22
2022-10-20T01:03:32.031Z,4.95
2022-10-20T01:05:58.695Z,5.28
2022-10-20T01:08:25.487Z,4.97
2022-10-20T01:11:15.923Z,5.05
2022-10-20T01:14:04.498Z,5.07
2022-10-20T01:16:59.381Z,4.95
2022-10-20T01:19:44.853Z,4.60
2022-10-20T01:22:49.454Z,4.70
2022-10-20T01:25:34.313Z,4.50
2022-10-20T01:28:22.782Z,5.55
2022-10-20T01:30:56.995Z,4.72
2022-10-20T01:33:40.261Z,5.32
2022-10-20T01:36:15.729Z,4.82
2022-10-20T01:39:10.217Z,5.25
2022-10-20T01:41:46.211Z,5.22
2022-10-20T01:44:16.218Z,5.57
2022-10-20T01:46:44.368Z,5.13
2022-10-20T01:49:13.299Z,5.25
2022-10-20T01:54:27.201Z,5.32
2022-10-20T01:57:05.566Z,5.85
2022-10-20T01:59:47.671Z,5.20
2022-10-20T02:02:20.030Z,5.55
2022-10-20T02:05:01.828Z,5.90
2022-10-20T02:07:30.692Z,5.30
2022-10-20T02:10:12.386Z,5.82
2022-10-20T02:12:41.923Z,5.60
2022-10-20T02:15:13.274Z,5.45
2022-10-20T02:17:41.910Z,6.05
2022-10-20T02:20:10.011Z,5.60
2022-10-20T02:22:39.376Z,5.55
2022-10-20T02:25:07.188Z,6.38
2022-10-20T02:27:37.324Z,6.20
2022-10-20T02:30:11.252Z,5.95
2022-10-20T02:32:40.647Z,6.28
2022-10-20T02:35:10.641Z,6.38
2022-10-20T02:37:37.716Z,6.78
2022-10-20T02:40:05.270Z,6.60
2022-10-20T02:42:32.043Z,6.80
2022-10-20T02:44:58.680Z,5.80
2022-10-20T02:47:25.324Z,6.20
2022-10-20T02:49:52.027Z,6.68
2022-10-20T02:52:18.724Z,5.75
2022-10-20T02:54:45.690Z,6.32
2022-10-20T02:57:12.364Z,6.45
2022-10-20T02:59:39.036Z,6.03
2022-10-20T03:02:05.768Z,6.63
2022-10-20T03:04:32.540Z,6.35
2022-10-20T03:06:59.207Z,6.53
2022-10-20T03:09:25.902Z,6.13
2022-10-20T03:11:52.542Z,6.53
2022-10-20T03:14:19.234Z,5.60
2022-10-20T03:16:45.866Z,6.88
2022-10-20T03:19:12.532Z,6.25
2022-10-20T03:21:39.295Z,6.88
2022-10-20T03:24:06.152Z,6.63
2022-10-20T03:26:32.886Z,6.00
2022-10-20T03:28:59.541Z,5.70
2022-10-20T03:31:26.371Z,6.38
2022-10-20T03:33:53.095Z,6.20
2022-10-20T03:36:19.966Z,7.00
2022-10-20T03:38:46.739Z,6.70
2022-10-20T03:41:13.408Z,6.78
2022-10-20T03:43:40.522Z,7.07
2022-10-20T03:46:09.593Z,6.90
2022-10-20T03:48:37.191Z,6.43
2022-10-20T03:51:05.014Z,6.70
2022-10-20T03:53:31.754Z,7.22
2022-10-20T03:55:58.492Z,6.63
2022-10-20T03:58:25.166Z,7.78
2022-10-20T04:00:52.228Z,7.03
2022-10-20T04:03:18.863Z,6.85
2022-10-20T04:05:45.605Z,6.90
2022-10-20T04:08:12.319Z,7.70
2022-10-20T04:10:39.004Z,6.47
2022-10-20T04:13:05.690Z,6.85
2022-10-20T04:15:32.534Z,6.95
2022-10-20T04:17:59.281Z,6.60
2022-10-20T04:20:25.967Z,7.03
2022-10-20T04:22:52.632Z,6.55
2022-10-20T04:25:19.364Z,7.65
2022-10-20T04:27:46.227Z,6.93
2022-10-20T04:30:13.001Z,6.75
2022-10-20T04:32:39.667Z,6.32
2022-10-20T04:35:06.887Z,6.57
2022-10-20T04:37:34.016Z,6.95
2022-10-20T04:40:01.024Z,6.95
2022-10-20T04:42:27.660Z,7.88
2022-10-20T04:44:54.398Z,7.20
2022-10-20T04:47:21.084Z,7.03
2022-10-20T04:49:47.722Z,7.07
2022-10-20T04:52:14.447Z,7.35
2022-10-20T04:54:41.071Z,6.47
2022-10-20T04:57:07.733Z,6.93
2022-10-20T04:59:34.433Z,6.75
2022-10-20T05:02:01.221Z,7.38
2022-10-20T05:04:27.947Z,7.55
2022-10-20T05:06:54.592Z,8.38
2022-10-20T05:09:21.252Z,7.07
2022-10-20T05:11:47.905Z,7.32
2022-10-20T05:14:14.635Z,7.63
2022-10-20T05:16:41.277Z,7.80
2022-10-20T05:19:07.980Z,7.70
2022-10-20T05:21:34.771Z,8.07
2022-10-20T05:24:04.288Z,7.88
2022-10-20T05:26:34.761Z,8.00
2022-10-20T05:29:04.083Z,8.15
2022-10-20T05:31:31.138Z,7.95
2022-10-20T05:33:57.858Z,8.00
2022-10-20T05:36:26.111Z,8.15
2022-10-20T05:38:54.350Z,7.80
2022-10-20T05:41:32.140Z,8.63
2022-10-20T05:44:04.569Z,8.68
2022-10-20T05:46:33.890Z,7.65
2022-10-20T05:49:02.804Z,8.60
2022-10-20T05:51:31.944Z,7.82
2022-10-20T05:53:59.498Z,8.65
2022-10-20T05:56:27.566Z,9.18
2022-10-20T05:58:55.024Z,8.43
2022-10-20T06:01:25.473Z,7.80
2022-10-20T06:04:00.088Z,8.88
2022-10-20T06:06:29.540Z,7.95
2022-10-20T06:08:58.475Z,8.52
2022-10-20T06:11:26.164Z,9.98
2022-10-20T06:13:53.551Z,7.88
2022-10-20T06:16:23.285Z,8.32
2022-10-20T06:18:50.387Z,9.10
2022-10-20T06:21:23.222Z,8.77
2022-10-20T06:23:50.162Z,7.75
2022-10-20T06:26:19.863Z,8.82
2022-10-20T06:28:48.774Z,8.05
2022-10-20T06:31:22.138Z,7.57
2022-10-20T06:33:49.622Z,8.65
2022-10-20T06:36:17.364Z,8.75
2022-10-20T06:38:44.544Z,7.82
2022-10-20T06:41:15.006Z,7.38
2022-10-20T06:43:42.593Z,8.60
2022-10-20T06:46:12.959Z,8.43
2022-10-20T06:48:39.745Z,8.50
2022-10-20T06:51:11.774Z,8.63
2022-10-20T06:53:42.680Z,9.52
2022-10-20T06:56:18.262Z,8.60
2022-10-20T07:01:17.406Z,8.68
2022-10-20T07:03:45.882Z,7.85
2022-10-20T07:06:20.540Z,9.18
2022-10-20T07:08:48.045Z,8.40
2022-10-20T07:11:17.751Z,9.40
2022-10-20T07:13:46.034Z,8.13
2022-10-20T07:16:15.156Z,7.85
2022-10-20T07:18:41.887Z,7.63
2022-10-20T07:21:12.727Z,8.07
2022-10-20T07:23:39.941Z,8.55
2022-10-20T07:26:10.776Z,8.15
2022-10-20T07:28:39.754Z,8.25
2022-10-20T07:31:09.528Z,8.20
2022-10-20T07:33:36.218Z,7.93
2022-10-20T07:36:11.979Z,8.57
2022-10-20T07:38:38.935Z,8.02
2022-10-20T07:41:05.722Z,8.98
2022-10-20T07:43:32.473Z,8.43
2022-10-20T07:45:59.096Z,8.32
2022-10-20T07:48:25.812Z,8.35
2022-10-20T07:50:52.455Z,9.20
2022-10-20T07:53:19.143Z,9.57
2022-10-20T07:55:45.984Z,10.00
2022-10-20T07:58:12.870Z,8.93
2022-10-20T08:03:11.169Z,8.63
2022-10-20T08:05:37.840Z,8.80
2022-10-20T08:08:04.660Z,8.65
2022-10-20T08:10:31.356Z,9.32
2022-10-20T08:12:57.994Z,8.18
2022-10-20T08:15:24.663Z,9.88
2022-10-20T08:17:51.318Z,8.25
2022-10-20T08:20:24.888Z,8.73
2022-10-20T08:22:53.804Z,9.02
2022-10-20T08:25:20.549Z,8.93
2022-10-20T08:27:47.249Z,8.95
2022-10-20T08:30:26.671Z,8.80
2022-10-20T08:32:54.123Z,9.18
2022-10-20T08:35:21.986Z,8.38
2022-10-20T08:37:48.956Z,8.32
2022-10-20T08:40:22.342Z,8.35
2022-10-20T08:42:49.887Z,8.38
2022-10-20T08:45:20.290Z,9.82
2022-10-20T08:47:49.313Z,8.52
2022-10-20T08:50:17.953Z,8.38
2022-10-20T08:52:47.142Z,8.82
2022-10-20T08:55:33.803Z,8.68
2022-10-20T08:58:13.007Z,9.05
2022-10-20T09:00:40.674Z,8.23
2022-10-20T09:03:21.819Z,9.13
2022-10-20T09:05:54.042Z,8.82
2022-10-20T09:08:24.682Z,9.25
2022-10-20T09:10:54.120Z,8.13
2022-10-20T09:13:27.518Z,8.65
2022-10-20T09:16:40.986Z,8.85
2022-10-20T09:19:18.237Z,8.90
2022-10-20T09:21:47.761Z,9.60
2022-10-20T09:24:14.510Z,9.23
2022-10-20T09:26:57.940Z,9.07
2022-10-20T09:29:36.395Z,9.27
2022-10-20T09:32:16.777Z,8.55
2022-10-20T09:34:49.813Z,9.38
2022-10-20T09:37:19.728Z,9.30
2022-10-20T09:39:47.159Z,9.02
2022-10-20T09:42:29.787Z,8.82
2022-10-20T09:45:05.855Z,9.85
2022-10-20T09:47:34.456Z,10.00
2022-10-20T09:50:04.256Z,9.55
2022-10-20T09:52:35.354Z,9.88
2022-10-20T09:55:07.349Z,10.82
2022-10-20T09:57:34.816Z,9.23
2022-10-20T10:00:13.492Z,9.77
2022-10-20T10:02:48.588Z,9.93
2022-10-20T10:05:19.243Z,9.60
2022-10-20T10:07:57.900Z,9.35
2022-10-20T10:10:27.328Z,9.27
2022-10-20T10:12:57.286Z,8.77
2022-10-20T10:15:43.693Z,9.85
2022-10-20T10:18:21.456Z,10.13
2022-10-20T10:20:56.655Z,9.55
2022-10-20T10:23:26.384Z,9.65
2022-10-20T10:25:53.659Z,9.18
2022-10-20T10:28:35.723Z,10.13
2022-10-20T10:31:08.682Z,9.38
2022-10-20T10:33:35.884Z,9.48
2022-10-20T10:36:07.324Z,10.10
2022-10-20T10:38:36.183Z,10.55
2022-10-20T10:41:25.114Z,10.38
2022-10-20T10:43:57.686Z,10.57
2022-10-20T10:46:31.507Z,9.45
2022-10-20T10:49:26.405Z,10.80
2022-10-20T10:52:12.409Z,10.07
2022-10-20T10:55:00.589Z,9.93
2022-10-20T10:57:44.269Z,10.25
2022-10-20T11:00:33.888Z,10.27
2022-10-20T11:03:12.590Z,10.38
2022-10-20T11:05:47.002Z,10.63
2022-10-20T11:08:33.526Z,11.10
2022-10-20T11:11:38.010Z,10.80
2022-10-20T11:14:40.643Z,10.43
2022-10-20T11:17:20.141Z,10.10
2022-10-20T11:20:15.115Z,11.50
2022-10-20T11:23:15.815Z,10.38
2022-10-20T11:25:51.549Z,11.60
2022-10-20T11:28:37.132Z,10.23
2022-10-20T11:31:04.722Z,11.90
2022-10-20T11:33:41.916Z,11.73
2022-10-20T11:36:17.798Z,10.55
2022-10-20T11:38:51.155Z,11.80
2022-10-20T11:41:30.042Z,12.05
2022-10-20T11:44:15.680Z,11.80
2022-10-20T11:46:52.098Z,12.95
2022-10-20T11:49:19.350Z,12.43
2022-10-20T11:52:23.567Z,11.85
2022-10-20T11:55:23.918Z,12.20
2022-10-20T11:58:37.209Z,11.98
2022-10-20T12:01:22.342Z,11.98
2022-10-20T12:04:23.292Z,12.95
2022-10-20T12:07:07.526Z,12.13
2022-10-20T12:09:49.000Z,11.55
2022-10-20T12:12:57.516Z,11.95
2022-10-20T12:15:27.722Z,12.07
2022-10-20T12:17:58.218Z,12.35
2022-10-20T12:20:24.844Z,12.85
2022-10-20T12:22:52.528Z,13.18
2022-10-20T12:25:25.159Z,14.77
2022-10-20T12:28:19.824Z,12.23
2022-10-20T12:31:01.325Z,12.93
2022-10-20T12:33:49.152Z,12.05
2022-10-20T12:36:18.856Z,12.02
2022-10-20T12:38:48.697Z,13.25
2022-10-20T12:41:30.291Z,13.23
2022-10-20T12:44:04.608Z,12.60
2022-10-20T12:46:34.108Z,11.95
2022-10-20T12:49:11.042Z,10.90
2022-10-20T12:51:48.677Z,12.52
2022-10-20T12:54:24.771Z,12.30
2022-10-20T12:56:54.112Z,14.50
2022-10-20T12:59:29.654Z,13.10
2022-10-20T13:02:08.468Z,13.00
2022-10-20T13:05:14.671Z,13.23
2022-10-20T13:07:50.207Z,12.82
2022-10-20T13:10:31.679Z,13.18
2022-10-20T13:13:01.342Z,13.52
2022-10-20T13:15:38.776Z,13.80
2022-10-20T13:18:11.812Z,14.70
2022-10-20T13:20:38.567Z,14.18
2022-10-20T13:23:05.859Z,16.00
2022-10-20T13:25:53.958Z,13.60
2022-10-20T13:28:24.653Z,14.18
2022-10-20T13:31:16.636Z,13.70
2022-10-20T13:34:03.937Z,13.18
2022-10-20T13:36:51.652Z,13.65
2022-10-20T13:39:41.115Z,13.00
2022-10-20T13:42:19.773Z,12.65
2022-10-20T13:44:52.507Z,13.63
2022-10-20T13:47:32.707Z,12.70
2022-10-20T13:50:10.880Z,12.38
2022-10-20T13:52:45.155Z,13.10
2022-10-20T13:55:27.022Z,13.55
2022-10-20T13:57:59.554Z,11.88
2022-10-20T14:00:31.554Z,12.57
2022-10-20T14:03:04.250Z,12.07
2022-10-20T14:05:38.424Z,12.38
2022-10-20T14:08:14.348Z,12.20
2022-10-20T14:10:48.302Z,12.80
2022-10-20T14:13:18.680Z,12.50
2022-10-20T14:15:52.087Z,11.57
2022-10-20T14:18:26.507Z,12.30
2022-10-20T14:21:14.379Z,12.82
2022-10-20T14:23:44.239Z,13.65
2022-10-20T14:26:21.679Z,11.82
2022-10-20T14:28:52.715Z,13.98
2022-10-20T14:31:24.275Z,13.77
2022-10-20T14:33:52.569Z,12.30
2022-10-20T14:36:22.215Z,13.65
2022-10-20T14:38:54.799Z,13.98
2022-10-20T14:41:39.724Z,14.55
2022-10-20T14:44:14.692Z,13.15
2022-10-20T14:46:47.965Z,12.82
2022-10-20T14:49:22.676Z,13.57
2022-10-20T14:52:20.393Z,13.13
2022-10-20T14:54:49.735Z,13.15
2022-10-20T14:57:16.395Z,13.25
2022-10-20T14:59:59.174Z,13.55
2022-10-20T15:02:33.151Z,12.82
2022-10-20T15:05:24.704Z,14.02
2022-10-20T15:07:53.402Z,13.65
2022-10-20T15:10:27.236Z,13.57
2022-10-20T15:12:55.712Z,14.52
2022-10-20T15:15:25.363Z,13.05
2022-10-20T15:18:08.719Z,14.35
2022-10-20T15:20:39.507Z,14.57
2022-10-20T15:23:12.088Z,14.25
2022-10-20T15:26:01.327Z,14.35
2022-10-20T15:28:38.716Z,14.25
2022-10-20T15:31:16.000Z,14.25
2022-10-20T15:33:42.740Z,14.73
2022-10-20T15:36:21.766Z,14.80
2022-10-20T15:38:49.647Z,14.77
2022-10-20T15:41:22.355Z,14.60
2022-10-20T15:43:49.259Z,16.00
2022-10-20T15:46:17.278Z,15.82
2022-10-20T15:48:44.482Z,16.40
2022-10-20T15:51:17.421Z,16.17
2022-10-20T15:53:49.371Z,15.93
2022-10-20T15:56:17.343Z,16.52
2022-10-20T15:58:44.366Z,18.40
2022-10-20T16:01:16.697Z,16.73
2022-10-20T16:06:13.437Z,18.42
2022-10-20T16:08:41.384Z,17.95
2022-10-20T16:11:09.071Z,19.95
2022-10-20T16:13:38.343Z,21.42
2022-10-20T16:16:06.130Z,19.23
2022-10-20T16:18:32.886Z,24.40
2022-10-20T16:21:00.282Z,24.70
2022-10-20T16:23:27.399Z,19.83
2022-10-20T16:25:54.058Z,29.00
2022-10-20T16:28:20.758Z,24.80
2022-10-20T16:30:47.403Z,25.30
2022-10-20T16:33:14.044Z,23.38
2022-10-20T16:35:44.564Z,25.15
2022-10-20T16:38:11.410Z,22.33
2022-10-20T16:40:38.100Z,23.05
2022-10-20T16:43:04.750Z,22.85
2022-10-20T16:45:31.442Z,22.13
2022-10-20T16:47:58.108Z,22.58
2022-10-20T16:50:24.878Z,21.35
2022-10-20T16:52:51.587Z,20.23
2022-10-20T16:55:18.282Z,19.67
2022-10-20T16:57:44.954Z,21.27
2022-10-20T17:00:12.302Z,21.48
2022-10-20T17:02:40.250Z,21.77
2022-10-20T17:05:09.368Z,23.30
2022-10-20T17:07:36.769Z,22.58
2022-10-20T17:10:03.825Z,21.33
2022-10-20T17:12:30.508Z,19.02
2022-10-20T17:14:57.119Z,21.95
2022-10-20T17:17:25.068Z,25.25
2022-10-20T17:19:51.751Z,27.00
2022-10-20T17:22:18.429Z,24.75
2022-10-20T17:24:45.416Z,24.08
2022-10-20T17:27:12.052Z,22.83
2022-10-20T17:29:38.683Z,18.33
2022-10-20T17:32:05.701Z,17.30
2022-10-20T17:34:32.487Z,15.13
2022-10-20T17:36:59.178Z,14.95
2022-10-20T17:39:25.856Z,14.70
2022-10-20T17:41:52.495Z,16.05
2022-10-20T17:44:19.196Z,15.30
2022-10-20T17:46:45.909Z,15.75
2022-10-20T17:49:12.618Z,15.10
2022-10-20T17:51:39.261Z,15.57
2022-10-20T17:54:06.098Z,15.77
2022-10-20T17:56:36.264Z,16.88
2022-10-20T17:59:05.541Z,16.92
2022-10-20T18:01:35.500Z,16.77
2022-10-20T18:04:09.003Z,16.73
2022-10-20T18:06:36.776Z,18.17
2022-10-20T18:09:12.844Z,16.48
2022-10-20T18:11:42.345Z,16.05
2022-10-20T18:14:09.127Z,15.68
2022-10-20T18:16:37.839Z,16.00
2022-10-20T18:19:05.336Z,16.30
2022-10-20T18:21:32.957Z,16.20
2022-10-20T18:24:02.517Z,16.92
2022-10-20T18:26:30.907Z,17.92
2022-10-20T18:28:59.310Z,18.83
2022-10-20T18:31:28.826Z,18.88
2022-10-20T18:33:58.202Z,18.63
2022-10-20T18:36:27.608Z,16.65
2022-10-20T18:38:54.948Z,15.93
2022-10-20T18:41:24.824Z,14.55
2022-10-20T18:43:58.248Z,15.95
2022-10-20T18:46:26.722Z,14.75
2022-10-20T18:48:53.644Z,15.80
2022-10-20T18:51:20.431Z,15.93
2022-10-20T18:53:47.652Z,15.05
2022-10-20T18:56:18.741Z,15.20
2022-10-20T18:58:56.706Z,16.05
2022-10-20T19:01:35.214Z,14.93
2022-10-20T19:04:03.432Z,14.93
2022-10-20T19:06:36.574Z,16.15
2022-10-20T19:09:07.096Z,15.50
2022-10-20T19:11:35.674Z,17.38
2022-10-20T19:14:02.624Z,18.33
2022-10-20T19:16:31.892Z,19.38
2022-10-20T19:19:00.468Z,19.60
2022-10-20T19:21:28.897Z,18.42
2022-10-20T19:24:09.240Z,15.60
2022-10-20T19:26:52.458Z,16.60
2022-10-20T19:29:31.432Z,15.55
2022-10-20T19:32:00.654Z,15.23
2022-10-20T19:34:30.543Z,15.13
2022-10-20T19:36:57.906Z,15.07
2022-10-20T19:39:30.214Z,16.15
2022-10-20T19:41:59.657Z,15.02
2022-10-20T19:44:27.348Z,15.20
2022-10-20T19:46:54.450Z,15.68
2022-10-20T19:49:22.947Z,15.68
2022-10-20T19:51:50.086Z,14.60
2022-10-20T19:54:16.823Z,14.40
2022-10-20T19:56:43.794Z,14.07
2022-10-20T19:59:10.886Z,13.77
2022-10-20T20:01:37.916Z,14.95
2022-10-20T20:04:06.216Z,15.35
2022-10-20T20:06:33.992Z,15.48
2022-10-20T20:09:02.444Z,15.52
2022-10-20T20:11:30.962Z,14.52
2022-10-20T20:14:01.136Z,15.10
2022-10-20T20:16:28.817Z,15.18
2022-10-20T20:18:55.807Z,16.15
2022-10-20T20:21:23.280Z,15.15
2022-10-20T20:23:59.428Z,14.38
2022-10-20T20:26:28.311Z,13.75
2022-10-20T20:28:55.595Z,13.18
2022-10-20T20:31:23.085Z,15.02
2022-10-20T20:33:50.263Z,15.30
2022-10-20T20:36:17.453Z,14.25
2022-10-20T20:38:44.409Z,14.70
2022-10-20T20:41:14.138Z,14.68
2022-10-20T20:43:40.896Z,14.57
2022-10-20T20:46:17.918Z,13.88
2022-10-20T20:48:45.368Z,14.02
2022-10-20T20:51:13.590Z,14.45
2022-10-20T20:53:40.811Z,13.35
2022-10-20T20:56:10.416Z,13.35
2022-10-20T20:58:37.733Z,13.40
2022-10-20T21:01:17.185Z,14.43
2022-10-20T21:03:44.348Z,12.77
2022-10-20T21:06:14.008Z,12.43
2022-10-20T21:08:42.831Z,12.95
2022-10-20T21:11:18.166Z,14.52
2022-10-20T21:13:48.383Z,13.13
2022-10-20T21:16:34.216Z,13.63
2022-10-20T21:19:04.771Z,13.32
2022-10-20T21:21:33.823Z,13.70
2022-10-20T21:24:01.961Z,12.68
2022-10-20T21:26:30.053Z,12.35
2022-10-20T21:28:57.353Z,12.15
2022-10-20T21:31:25.764Z,11.38
2022-10-20T21:33:55.175Z,12.25
2022-10-20T21:36:22.551Z,12.10
2022-10-20T21:38:49.816Z,12.68
2022-10-20T21:41:22.119Z,11.85
2022-10-20T21:43:51.285Z,12.65
2022-10-20T21:46:23.749Z,12.57
2022-10-20T21:51:24.214Z,11.68
2022-10-20T21:53:58.219Z,11.52
2022-10-20T21:56:25.041Z,12.73
2022-10-20T21:58:52.897Z,12.07
2022-10-20T22:01:21.838Z,12.38
2022-10-20T22:03:49.757Z,12.00
2022-10-20T22:06:19.140Z,12.00
2022-10-20T22:08:47.575Z,12.32
2022-10-20T22:11:17.392Z,11.40
2022-10-20T22:13:44.352Z,12.23
2022-10-20T22:16:15.984Z,13.55
2022-10-20T22:18:42.710Z,11.63
2022-10-20T22:21:15.723Z,12.50
2022-10-20T22:23:43.571Z,13.13
2022-10-20T22:26:10.970Z,12.55
2022-10-20T22:28:38.162Z,12.35
2022-10-20T22:31:06.645Z,12.13
2022-10-20T22:33:33.528Z,12.75
2022-10-20T22:36:00.318Z,13.90
2022-10-20T22:38:26.993Z,12.15
2022-10-20T22:40:58.529Z,13.13
2022-10-20T22:43:25.859Z,12.40
2022-10-20T22:45:52.594Z,12.82
2022-10-20T22:48:19.336Z,12.60
2022-10-20T22:50:46.161Z,12.02
2022-10-20T22:53:12.971Z,11.65
2022-10-20T22:55:39.677Z,12.07
2022-10-20T22:58:06.501Z,12.60
2022-10-20T23:00:33.172Z,12.15
2022-10-20T23:02:59.815Z,12.20
2022-10-20T23:05:26.562Z,11.65
2022-10-20T23:07:53.223Z,11.70
2022-10-20T23:10:19.941Z,12.02
2022-10-20T23:12:46.600Z,11.50
2022-10-20T23:15:13.269Z,11.63
2022-10-20T23:17:40.152Z,11.50
2022-10-20T23:20:07.248Z,12.23
2022-10-20T23:22:34.011Z,12.30
2022-10-20T23:25:02.111Z,12.75
2022-10-20T23:27:28.828Z,12.80
2022-10-20T23:29:55.531Z,12.05
2022-10-20T23:32:22.233Z,12.25
2022-10-20T23:34:48.850Z,13.05
2022-10-20T23:37:19.454Z,12.65
2022-10-20T23:39:46.468Z,12.27
2022-10-20T23:42:13.181Z,13.35
2022-10-20T23:44:40.076Z,12.38
2022-10-20T23:47:06.712Z,12.38
2022-10-20T23:49:33.377Z,13.88
2022-10-20T23:52:00.003Z,13.40
2022-10-20T23:54:26.748Z,12.43
2022-10-20T23:56:53.395Z,12.02
2022-10-20T23:59:20.059Z,12.77
